Time;durP1;ratioP1;P1;durP2;ratioP2;P2;SDS_P1;SDS_P2;PMS_P1;PMS_P2;Temp;Humidity;BMP_temperature;BMP_pressure;BME280_temperature;BME280_humidity;BME280_pressure;Samples;Min_cycle;Max_cycle;Signal;HPM_P1;HPM_P2
2023/10/24 00:00:17;;;;;;;18.80;17.90;;;;;;;;;;5053034;28;20422;-77
2023/10/24 00:02:46;;;;;;;18.73;17.83;;;;;;;;;;5066999;28;20490;-78
2023/10/24 00:05:13;;;;;;;18.90;18.00;;;;;;;;;;5050452;28;20447;-77
2023/10/24 00:07:40;;;;;;;19.20;17.97;;;;;;;;;;5050825;28;21045;-77
2023/10/24 00:10:07;;;;;;;19.97;18.87;;;;;;;;;;5051711;28;20463;-76
2023/10/24 00:12:34;;;;;;;18.77;17.77;;;;;;;;;;5070765;28;20518;-77
2023/10/24 00:15:01;;;;;;;19.60;18.10;;;;;;;;;;5070476;28;20450;-76
2023/10/24 00:17:28;;;;;;;19.70;18.60;;;;;;;;;;5070672;28;20508;-76
2023/10/24 00:19:57;;;;;;;20.13;18.97;;;;;;;;;;5070605;28;20449;-77
2023/10/24 00:22:24;;;;;;;18.80;17.80;;;;;;;;;;5069761;28;20496;-76
2023/10/24 00:24:51;;;;;;;19.77;18.57;;;;;;;;;;5069606;28;20445;-77
2023/10/24 00:27:18;;;;;;;19.70;18.50;;;;;;;;;;5070559;28;20469;-77
2023/10/24 00:29:45;;;;;;;18.37;17.37;;;;;;;;;;5070494;28;20449;-77
2023/10/24 00:32:12;;;;;;;18.97;17.77;;;;;;;;;;5070406;28;20437;-78
2023/10/24 00:34:39;;;;;;;19.07;17.60;;;;;;;;;;5069698;28;20928;-78
2023/10/24 00:37:07;;;;;;;18.13;17.13;;;;;;;;;;5070378;28;20443;-77
2023/10/24 00:39:34;;;;;;;18.30;17.07;;;;;;;;;;5070778;28;20442;-76
2023/10/24 00:42:02;;;;;;;17.87;16.77;;;;;;;;;;5070125;28;20960;-77
2023/10/24 00:44:31;;;;;;;18.60;17.50;;;;;;;;;;5052171;28;20479;-78
2023/10/24 00:46:58;;;;;;;18.27;17.27;;;;;;;;;;5050053;28;20482;-76
2023/10/24 00:49:26;;;;;;;18.13;17.13;;;;;;;;;;5049735;28;20451;-76
2023/10/24 00:51:54;;;;;;;19.03;18.13;;;;;;;;;;5050087;28;20431;-76
2023/10/24 00:54:22;;;;;;;18.83;17.60;;;;;;;;;;5049623;28;20446;-79
2023/10/24 00:56:51;;;;;;;18.20;17.30;;;;;;;;;;5049820;28;20572;-76
2023/10/24 00:59:20;;;;;;;18.67;17.43;;;;;;;;;;5053060;28;20425;-76
2023/10/24 01:01:47;;;;;;;19.07;18.00;;;;;;;;;;5069684;28;20507;-76
2023/10/24 01:04:14;;;;;;;19.20;18.13;;;;;;;;;;5058149;28;20454;-77
2023/10/24 01:06:40;;;;;;;19.57;17.90;;;;;;;;;;5049921;28;20474;-77
2023/10/24 01:09:07;;;;;;;18.83;17.83;;;;;;;;;;5049406;28;20466;-76
2023/10/24 01:11:36;;;;;;;20.30;18.67;;;;;;;;;;5049654;28;20463;-77
2023/10/24 01:14:03;;;;;;;18.20;17.17;;;;;;;;;;5049082;28;21379;-76
2023/10/24 01:16:30;;;;;;;18.87;17.77;;;;;;;;;;5050078;28;20454;-76
2023/10/24 01:18:57;;;;;;;19.93;18.50;;;;;;;;;;5050110;28;20478;-77
2023/10/24 01:21:24;;;;;;;18.90;17.20;;;;;;;;;;5049910;28;20464;-77
2023/10/24 01:23:55;;;;;;;19.20;18.10;;;;;;;;;;5049484;28;20454;-76
2023/10/24 01:26:22;;;;;;;18.73;17.83;;;;;;;;;;5049929;28;20436;-76
2023/10/24 01:28:49;;;;;;;18.60;17.50;;;;;;;;;;5050080;28;20854;-76
2023/10/24 01:31:16;;;;;;;19.83;18.40;;;;;;;;;;5050074;28;20446;-77
2023/10/24 01:33:43;;;;;;;20.30;18.90;;;;;;;;;;5049818;28;20451;-77
2023/10/24 01:36:10;;;;;;;20.13;18.93;;;;;;;;;;5049458;28;20446;-77
2023/10/24 01:38:37;;;;;;;19.40;18.30;;;;;;;;;;5049940;28;20477;-78
2023/10/24 01:41:05;;;;;;;19.03;17.77;;;;;;;;;;5050266;28;20814;-77
2023/10/24 01:43:32;;;;;;;22.23;20.30;;;;;;;;;;5049890;28;20466;-77
2023/10/24 01:45:59;;;;;;;21.43;19.73;;;;;;;;;;5049374;28;20463;-76
2023/10/24 01:48:26;;;;;;;21.23;19.30;;;;;;;;;;5049973;28;20558;-77
2023/10/24 01:50:53;;;;;;;20.93;19.30;;;;;;;;;;5049593;28;20453;-77
2023/10/24 01:53:20;;;;;;;20.93;19.53;;;;;;;;;;5048873;28;20474;-76
2023/10/24 01:55:47;;;;;;;21.20;19.90;;;;;;;;;;5049142;28;20453;-78
2023/10/24 01:58:16;;;;;;;19.83;18.40;;;;;;;;;;5049202;28;20462;-76
2023/10/24 02:00:43;;;;;;;18.97;17.90;;;;;;;;;;5049931;28;20454;-77
2023/10/24 02:03:10;;;;;;;18.83;17.77;;;;;;;;;;5052983;28;20968;-77
2023/10/24 02:05:37;;;;;;;18.97;17.80;;;;;;;;;;5052791;28;20446;-76
2023/10/24 02:08:04;;;;;;;20.53;19.10;;;;;;;;;;5053227;28;21096;-77
2023/10/24 02:10:31;;;;;;;20.17;18.93;;;;;;;;;;5053225;28;20458;-77
2023/10/24 02:12:58;;;;;;;20.63;19.03;;;;;;;;;;5053528;28;20816;-77
2023/10/24 02:15:26;;;;;;;19.40;18.20;;;;;;;;;;5052831;28;20815;-76
2023/10/24 02:17:53;;;;;;;19.00;17.97;;;;;;;;;;5052851;28;20557;-77
2023/10/24 02:20:20;;;;;;;19.60;18.40;;;;;;;;;;5053179;28;20417;-75
2023/10/24 02:22:49;;;;;;;18.70;17.60;;;;;;;;;;5052207;28;20465;-77
2023/10/24 02:25:16;;;;;;;19.13;18.13;;;;;;;;;;5052524;28;20528;-77
2023/10/24 02:27:43;;;;;;;18.90;17.60;;;;;;;;;;5053027;28;21115;-77
2023/10/24 02:30:10;;;;;;;18.60;17.70;;;;;;;;;;5052827;28;20429;-76
2023/10/24 02:32:38;;;;;;;19.20;18.10;;;;;;;;;;5052737;28;20424;-77
2023/10/24 02:35:06;;;;;;;18.90;17.87;;;;;;;;;;5051618;28;20455;-76
2023/10/24 02:37:33;;;;;;;19.27;17.97;;;;;;;;;;5052908;28;20473;-77
2023/10/24 02:40:00;;;;;;;18.90;17.80;;;;;;;;;;5052398;28;20915;-76
2023/10/24 02:42:27;;;;;;;19.43;18.47;;;;;;;;;;5052812;28;20534;-76
2023/10/24 02:44:54;;;;;;;19.70;18.40;;;;;;;;;;5052399;28;20417;-76
2023/10/24 02:47:21;;;;;;;19.60;18.60;;;;;;;;;;5053048;28;20466;-77
2023/10/24 02:49:49;;;;;;;20.13;18.93;;;;;;;;;;5052898;28;20451;-77
2023/10/24 02:52:16;;;;;;;19.33;18.27;;;;;;;;;;5052795;28;20473;-75
2023/10/24 02:54:43;;;;;;;19.33;18.13;;;;;;;;;;5051347;28;20524;-76
2023/10/24 02:57:10;;;;;;;20.40;19.33;;;;;;;;;;5052487;28;20489;-77
2023/10/24 02:59:37;;;;;;;20.03;18.83;;;;;;;;;;5052115;28;20957;-77
2023/10/24 03:02:05;;;;;;;18.70;17.70;;;;;;;;;;5052372;28;20548;-76
2023/10/24 03:04:32;;;;;;;19.70;18.60;;;;;;;;;;5051711;28;20503;-76
2023/10/24 03:07:00;;;;;;;19.03;17.83;;;;;;;;;;5052203;28;20868;-77
2023/10/24 03:09:27;;;;;;;18.50;17.60;;;;;;;;;;5051949;28;20438;-76
2023/10/24 03:11:54;;;;;;;20.57;19.17;;;;;;;;;;5051203;28;20459;-77
2023/10/24 03:14:21;;;;;;;19.00;17.90;;;;;;;;;;5051562;28;21165;-77
2023/10/24 03:16:48;;;;;;;19.73;18.53;;;;;;;;;;5051795;28;20444;-76
2023/10/24 03:19:16;;;;;;;18.87;17.87;;;;;;;;;;5051951;28;20529;-77
2023/10/24 03:21:43;;;;;;;19.27;18.13;;;;;;;;;;5052042;28;20450;-77
2023/10/24 03:24:11;;;;;;;20.60;19.07;;;;;;;;;;5051336;28;20457;-78
2023/10/24 03:26:38;;;;;;;19.27;18.00;;;;;;;;;;5051582;28;20471;-76
2023/10/24 03:29:05;;;;;;;18.77;17.77;;;;;;;;;;5051620;28;20450;-78
2023/10/24 03:31:32;;;;;;;19.47;18.27;;;;;;;;;;5051539;28;20447;-77
2023/10/24 03:34:00;;;;;;;19.20;18.10;;;;;;;;;;5051364;28;20443;-76
2023/10/24 03:36:27;;;;;;;20.30;19.20;;;;;;;;;;5051829;28;20450;-76
2023/10/24 03:38:54;;;;;;;19.40;18.40;;;;;;;;;;5051918;28;20512;-77
2023/10/24 03:41:22;;;;;;;20.10;18.93;;;;;;;;;;5060531;28;20445;-77
2023/10/24 03:43:49;;;;;;;19.03;18.10;;;;;;;;;;5070847;28;20489;-76
2023/10/24 03:46:16;;;;;;;19.63;18.53;;;;;;;;;;5071651;28;20450;-78
2023/10/24 03:48:43;;;;;;;19.67;18.50;;;;;;;;;;5071278;28;20950;-78
2023/10/24 03:51:10;;;;;;;19.70;18.57;;;;;;;;;;5071410;28;20482;-78
2023/10/24 03:53:38;;;;;;;20.30;18.70;;;;;;;;;;5071452;28;20818;-77
2023/10/24 03:56:05;;;;;;;19.50;18.30;;;;;;;;;;5070973;28;20456;-77
2023/10/24 03:58:34;;;;;;;20.90;19.30;;;;;;;;;;5070625;28;20493;-77
2023/10/24 04:01:04;;;;;;;19.40;18.20;;;;;;;;;;5071049;28;20527;-76
2023/10/24 04:03:31;;;;;;;20.23;19.13;;;;;;;;;;5070748;28;20537;-76
2023/10/24 04:05:58;;;;;;;21.40;20.10;;;;;;;;;;5070413;28;20449;-77
2023/10/24 04:08:26;;;;;;;26.10;24.30;;;;;;;;;;5070640;28;21041;-78
2023/10/24 04:10:53;;;;;;;20.87;19.53;;;;;;;;;;5070739;28;20461;-78
2023/10/24 04:13:20;;;;;;;20.13;19.03;;;;;;;;;;5070705;28;20595;-77
2023/10/24 04:15:51;;;;;;;20.97;19.80;;;;;;;;;;5070000;28;20450;-77
2023/10/24 04:18:18;;;;;;;19.33;18.23;;;;;;;;;;5070183;28;20461;-77
2023/10/24 04:20:45;;;;;;;21.00;19.70;;;;;;;;;;5070563;28;20446;-77
2023/10/24 04:23:27;;;;;;;20.63;19.53;;;;;;;;;;5057242;28;20478;-76
2023/10/24 04:25:54;;;;;;;20.70;19.60;;;;;;;;;;5070081;28;20442;-77
2023/10/24 04:28:21;;;;;;;19.73;18.43;;;;;;;;;;5070309;28;20555;-76
2023/10/24 04:30:49;;;;;;;21.13;19.83;;;;;;;;;;5069940;28;20473;-76
2023/10/24 04:33:16;;;;;;;20.93;19.70;;;;;;;;;;5070653;28;20832;-76
2023/10/24 04:35:46;;;;;;;21.63;19.73;;;;;;;;;;5070014;28;20455;-78
2023/10/24 04:38:14;;;;;;;20.60;19.50;;;;;;;;;;5071065;28;20466;-78
2023/10/24 04:40:41;;;;;;;21.87;20.60;;;;;;;;;;5069644;28;20989;-77
2023/10/24 04:43:08;;;;;;;21.70;20.50;;;;;;;;;;5069868;28;20490;-76
2023/10/24 04:45:36;;;;;;;19.43;18.23;;;;;;;;;;5069646;28;20432;-77
2023/10/24 04:48:04;;;;;;;19.50;18.30;;;;;;;;;;5070096;28;20448;-77
2023/10/24 04:50:31;;;;;;;19.60;18.60;;;;;;;;;;5070157;28;20497;-76
2023/10/24 04:52:58;;;;;;;19.73;18.53;;;;;;;;;;5070231;28;20441;-77
2023/10/24 04:55:25;;;;;;;20.83;19.43;;;;;;;;;;5069712;28;20441;-76
2023/10/24 04:57:52;;;;;;;22.60;21.33;;;;;;;;;;5067748;28;20488;-77
2023/10/24 05:00:19;;;;;;;21.50;20.30;;;;;;;;;;5070067;28;20491;-76
2023/10/24 05:02:46;;;;;;;23.37;21.57;;;;;;;;;;5069721;28;20521;-78
2023/10/24 05:05:15;;;;;;;20.90;19.70;;;;;;;;;;5069645;28;20450;-76
2023/10/24 05:07:42;;;;;;;21.77;20.47;;;;;;;;;;5070000;28;20519;-78
2023/10/24 05:10:10;;;;;;;21.23;19.73;;;;;;;;;;5069622;28;20990;-78
2023/10/24 05:12:37;;;;;;;21.30;20.00;;;;;;;;;;5069572;28;20471;-77
2023/10/24 05:15:04;;;;;;;20.30;19.03;;;;;;;;;;5069508;28;20449;-78
2023/10/24 05:17:31;;;;;;;20.03;18.67;;;;;;;;;;5070084;28;20457;-77
2023/10/24 05:20:01;;;;;;;20.63;19.23;;;;;;;;;;5070268;28;20540;-77
2023/10/24 05:22:30;;;;;;;20.60;19.37;;;;;;;;;;5070404;28;20441;-75
2023/10/24 05:24:57;;;;;;;20.27;19.17;;;;;;;;;;5069542;28;20457;-78
2023/10/24 05:27:25;;;;;;;21.10;19.80;;;;;;;;;;5069980;28;20869;-77
2023/10/24 05:29:52;;;;;;;20.80;19.60;;;;;;;;;;5070180;28;20449;-76
2023/10/24 05:32:19;;;;;;;21.30;20.10;;;;;;;;;;5069805;28;20445;-75
2023/10/24 05:34:46;;;;;;;21.83;20.40;;;;;;;;;;5069944;28;20449;-76
2023/10/24 05:37:13;;;;;;;21.60;20.30;;;;;;;;;;5073830;28;20503;-76
2023/10/24 05:39:42;;;;;;;22.13;20.73;;;;;;;;;;5073943;28;20753;-77
2023/10/24 05:42:09;;;;;;;20.77;19.57;;;;;;;;;;5073954;28;20461;-76
2023/10/24 05:44:36;;;;;;;22.67;21.43;;;;;;;;;;5073321;28;20485;-76
2023/10/24 05:47:03;;;;;;;22.57;21.20;;;;;;;;;;5073688;28;20462;-78
2023/10/24 05:49:30;;;;;;;21.50;20.30;;;;;;;;;;5073632;28;20938;-77
2023/10/24 05:51:57;;;;;;;22.37;21.17;;;;;;;;;;5073557;28;20524;-77
2023/10/24 05:54:24;;;;;;;22.33;21.03;;;;;;;;;;5072968;28;20450;-77
2023/10/24 05:56:52;;;;;;;20.93;19.73;;;;;;;;;;5073443;28;20467;-78
2023/10/24 05:59:19;;;;;;;21.97;20.57;;;;;;;;;;5073657;28;20544;-76
2023/10/24 06:01:46;;;;;;;21.60;20.37;;;;;;;;;;5073655;28;21111;-76
2023/10/24 06:04:13;;;;;;;21.70;20.27;;;;;;;;;;5067489;28;20478;-76
2023/10/24 06:06:40;;;;;;;22.80;21.43;;;;;;;;;;5053285;28;20990;-78
2023/10/24 06:09:12;;;;;;;21.87;20.57;;;;;;;;;;5054021;28;20442;-76
2023/10/24 06:11:39;;;;;;;21.67;20.37;;;;;;;;;;5053466;28;20545;-76
2023/10/24 06:14:08;;;;;;;21.13;19.77;;;;;;;;;;5052915;28;20492;-77
2023/10/24 06:16:35;;;;;;;20.77;19.67;;;;;;;;;;5053043;28;20978;-76
2023/10/24 06:19:02;;;;;;;21.40;20.20;;;;;;;;;;5052950;28;20489;-76
2023/10/24 06:21:29;;;;;;;20.60;19.43;;;;;;;;;;5052669;28;20451;-77
2023/10/24 06:23:56;;;;;;;20.87;19.63;;;;;;;;;;5061014;28;21004;-76
2023/10/24 06:26:23;;;;;;;21.90;20.40;;;;;;;;;;5058170;28;20535;-77
2023/10/24 06:28:50;;;;;;;21.50;20.10;;;;;;;;;;5063328;28;20790;-77
2023/10/24 06:31:19;;;;;;;22.77;21.00;;;;;;;;;;5051800;28;20508;-76
2023/10/24 06:33:46;;;;;;;22.67;21.07;;;;;;;;;;5051778;28;20496;-77
2023/10/24 06:36:13;;;;;;;21.17;19.77;;;;;;;;;;5052147;28;20848;-77
2023/10/24 06:38:40;;;;;;;22.30;20.93;;;;;;;;;;5051931;28;20477;-77
2023/10/24 06:41:08;;;;;;;22.07;20.63;;;;;;;;;;5052345;28;20457;-76
2023/10/24 06:43:36;;;;;;;22.00;20.43;;;;;;;;;;5051756;28;20584;-78
2023/10/24 06:46:04;;;;;;;22.20;20.47;;;;;;;;;;5051406;28;20546;-78
2023/10/24 06:48:33;;;;;;;22.33;20.97;;;;;;;;;;5051623;28;20553;-76
2023/10/24 06:51:00;;;;;;;21.23;20.03;;;;;;;;;;5050617;28;20853;-76
2023/10/24 06:53:27;;;;;;;22.07;20.77;;;;;;;;;;5051483;28;20539;-76
2023/10/24 06:55:59;;;;;;;21.90;20.40;;;;;;;;;;5065394;28;20458;-76
2023/10/24 06:58:26;;;;;;;23.63;22.03;;;;;;;;;;5050590;28;20562;-78
2023/10/24 07:00:53;;;;;;;21.40;20.20;;;;;;;;;;5051618;28;20429;-77
2023/10/24 07:03:20;;;;;;;21.70;20.10;;;;;;;;;;5051442;28;20552;-76
2023/10/24 07:05:52;;;;;;;21.07;19.77;;;;;;;;;;5050802;28;20569;-76
2023/10/24 07:08:19;;;;;;;20.50;19.30;;;;;;;;;;5051948;28;21062;-76
2023/10/24 07:10:46;;;;;;;20.30;18.90;;;;;;;;;;5051950;28;20467;-77
2023/10/24 07:13:13;;;;;;;20.37;19.27;;;;;;;;;;5051837;28;20520;-77
2023/10/24 07:15:40;;;;;;;20.67;19.37;;;;;;;;;;5051690;28;20443;-75
2023/10/24 07:18:07;;;;;;;21.00;19.60;;;;;;;;;;5052034;28;20475;-77
2023/10/24 07:20:36;;;;;;;21.50;20.17;;;;;;;;;;5051980;28;20576;-76
2023/10/24 07:23:05;;;;;;;20.60;19.40;;;;;;;;;;5051044;28;20542;-77
2023/10/24 07:25:32;;;;;;;20.70;19.33;;;;;;;;;;5050661;28;20489;-76
2023/10/24 07:27:59;;;;;;;20.30;19.10;;;;;;;;;;5050183;28;20473;-75
2023/10/24 07:30:26;;;;;;;20.70;19.20;;;;;;;;;;5052513;28;20439;-77
2023/10/24 07:32:54;;;;;;;19.93;18.73;;;;;;;;;;5052132;28;20455;-76
2023/10/24 07:35:22;;;;;;;19.93;18.83;;;;;;;;;;5050626;28;20605;-76
2023/10/24 07:37:49;;;;;;;20.87;19.57;;;;;;;;;;5051229;28;20491;-77
2023/10/24 07:40:18;;;;;;;20.27;19.07;;;;;;;;;;5051984;28;20442;-77
2023/10/24 07:42:45;;;;;;;20.30;19.13;;;;;;;;;;5051893;28;20536;-76
2023/10/24 07:45:13;;;;;;;20.20;18.90;;;;;;;;;;5050858;28;20850;-75
2023/10/24 07:47:40;;;;;;;21.10;19.90;;;;;;;;;;5051778;28;20483;-76
2023/10/24 07:50:09;;;;;;;19.57;18.63;;;;;;;;;;5051761;28;20424;-76
2023/10/24 07:52:36;;;;;;;20.27;19.03;;;;;;;;;;5051390;28;20993;-76
2023/10/24 07:55:03;;;;;;;19.10;18.10;;;;;;;;;;5050454;28;20470;-77
2023/10/24 07:57:31;;;;;;;19.57;18.57;;;;;;;;;;5050910;28;20470;-76
2023/10/24 07:59:58;;;;;;;19.10;18.10;;;;;;;;;;5051429;28;21434;-76
2023/10/24 08:02:25;;;;;;;19.07;18.07;;;;;;;;;;5050954;28;20972;-75
2023/10/24 08:04:52;;;;;;;19.20;18.00;;;;;;;;;;5050333;28;20540;-76
2023/10/24 08:07:19;;;;;;;18.90;17.80;;;;;;;;;;5050575;28;20490;-77
2023/10/24 08:09:46;;;;;;;19.33;18.13;;;;;;;;;;5050837;28;20450;-76
2023/10/24 08:12:13;;;;;;;19.50;18.40;;;;;;;;;;5050103;28;20550;-77
2023/10/24 08:14:42;;;;;;;20.77;19.47;;;;;;;;;;5049831;28;20553;-77
2023/10/24 08:17:09;;;;;;;19.30;18.20;;;;;;;;;;5050845;28;20477;-75
2023/10/24 08:19:36;;;;;;;19.17;18.17;;;;;;;;;;5050779;28;20508;-77
2023/10/24 08:22:03;;;;;;;19.73;18.63;;;;;;;;;;5050111;28;20905;-76
2023/10/24 08:24:30;;;;;;;19.50;18.13;;;;;;;;;;5050482;28;20494;-77
2023/10/24 08:26:57;;;;;;;19.00;17.80;;;;;;;;;;5050842;28;20463;-76
2023/10/24 08:29:25;;;;;;;18.50;17.40;;;;;;;;;;5050631;28;20458;-77
2023/10/24 08:31:53;;;;;;;18.40;17.50;;;;;;;;;;5050563;28;21216;-77
2023/10/24 08:34:20;;;;;;;18.80;17.70;;;;;;;;;;5049939;28;20442;-75
2023/10/24 08:36:47;;;;;;;17.90;16.90;;;;;;;;;;5049757;28;21014;-77
2023/10/24 08:39:14;;;;;;;18.33;17.23;;;;;;;;;;5050543;28;20449;-77
2023/10/24 08:41:43;;;;;;;18.97;17.90;;;;;;;;;;5050422;28;20451;-77
2023/10/24 08:44:12;;;;;;;20.13;18.57;;;;;;;;;;5050069;28;20464;-76
2023/10/24 08:46:39;;;;;;;19.10;18.10;;;;;;;;;;5050125;28;20565;-77
2023/10/24 08:49:08;;;;;;;18.83;17.73;;;;;;;;;;5050316;28;20451;-79
2023/10/24 08:51:35;;;;;;;18.50;17.50;;;;;;;;;;5050211;28;20931;-76
2023/10/24 08:54:03;;;;;;;18.47;17.57;;;;;;;;;;5049627;28;20996;-77
2023/10/24 08:56:33;;;;;;;18.57;17.37;;;;;;;;;;5050134;28;20997;-77
2023/10/24 08:59:00;;;;;;;18.97;17.87;;;;;;;;;;5050841;28;20451;-77
2023/10/24 09:01:29;;;;;;;18.70;17.60;;;;;;;;;;5050455;28;20497;-76
2023/10/24 09:03:56;;;;;;;19.63;18.53;;;;;;;;;;5049504;28;20474;-76
2023/10/24 09:06:25;;;;;;;19.10;18.10;;;;;;;;;;5055557;28;20499;-76
2023/10/24 09:08:52;;;;;;;18.37;17.37;;;;;;;;;;5070180;28;20825;-77
2023/10/24 09:11:19;;;;;;;18.93;17.93;;;;;;;;;;5069557;28;20461;-78
2023/10/24 09:13:46;;;;;;;19.33;18.13;;;;;;;;;;5069995;28;20813;-76
2023/10/24 09:16:15;;;;;;;18.73;17.77;;;;;;;;;;5070068;28;20424;-76
2023/10/24 09:18:42;;;;;;;18.20;17.07;;;;;;;;;;5069702;28;20958;-77
2023/10/24 09:21:10;;;;;;;19.33;18.20;;;;;;;;;;5070292;28;20454;-76
2023/10/24 09:23:39;;;;;;;18.80;17.70;;;;;;;;;;5069844;28;20815;-75
2023/10/24 09:26:07;;;;;;;19.07;18.07;;;;;;;;;;5069709;28;20449;-76
2023/10/24 09:28:34;;;;;;;19.20;18.10;;;;;;;;;;5070048;28;20470;-77
2023/10/24 09:31:03;;;;;;;19.33;18.23;;;;;;;;;;5070313;28;20449;-77
2023/10/24 09:33:32;;;;;;;18.50;17.57;;;;;;;;;;5070316;28;20481;-75
2023/10/24 09:35:59;;;;;;;18.60;17.60;;;;;;;;;;5069369;28;20438;-77
2023/10/24 09:38:26;;;;;;;18.40;17.50;;;;;;;;;;5070455;28;20466;-76
2023/10/24 09:40:55;;;;;;;18.93;17.90;;;;;;;;;;5069646;28;20473;-76
2023/10/24 09:43:23;;;;;;;19.50;18.20;;;;;;;;;;5070215;28;20540;-77
2023/10/24 09:45:51;;;;;;;18.60;17.70;;;;;;;;;;5069557;28;20489;-76
2023/10/24 09:48:19;;;;;;;19.17;17.97;;;;;;;;;;5070093;28;20545;-77
2023/10/24 09:50:46;;;;;;;19.10;18.10;;;;;;;;;;5070210;28;20526;-76
2023/10/24 09:53:13;;;;;;;18.40;17.50;;;;;;;;;;5070072;28;20852;-77
2023/10/24 09:55:41;;;;;;;19.50;18.50;;;;;;;;;;5069146;28;20424;-76
2023/10/24 09:58:10;;;;;;;19.23;18.23;;;;;;;;;;5069925;28;20523;-76
2023/10/24 10:00:37;;;;;;;19.13;18.03;;;;;;;;;;5069809;28;20449;-77
2023/10/24 10:03:06;;;;;;;19.37;18.20;;;;;;;;;;5069886;28;20495;-76
2023/10/24 10:05:33;;;;;;;20.03;18.83;;;;;;;;;;5068264;28;20531;-76
2023/10/24 10:08:02;;;;;;;20.10;19.00;;;;;;;;;;5051571;28;20478;-77
2023/10/24 10:10:30;;;;;;;19.33;18.23;;;;;;;;;;5056075;28;20460;-77
2023/10/24 10:13:00;;;;;;;19.43;18.40;;;;;;;;;;5069941;28;21256;-76
2023/10/24 10:15:36;;;;;;;19.77;18.57;;;;;;;;;;5064531;28;20496;-77
2023/10/24 10:18:05;;;;;;;19.60;18.50;;;;;;;;;;5061878;28;20493;-75
2023/10/24 10:20:42;;;;;;;19.40;18.30;;;;;;;;;;5049916;28;20500;-74
2023/10/24 10:23:16;;;;;;;19.13;18.13;;;;;;;;;;5052215;28;20446;-75
2023/10/24 10:25:52;;;;;;;19.87;18.20;;;;;;;;;;5071966;28;20530;-76
2023/10/24 10:28:28;;;;;;;19.67;18.67;;;;;;;;;;5072767;28;20458;-74
2023/10/24 10:31:00;;;;;;;19.10;18.10;;;;;;;;;;5073200;28;20428;-75
2023/10/24 10:33:27;;;;;;;19.07;17.97;;;;;;;;;;5079679;28;20473;-76
2023/10/24 10:35:56;;;;;;;19.20;18.20;;;;;;;;;;5072409;28;20468;-76
2023/10/24 10:38:35;;;;;;;19.67;18.63;;;;;;;;;;5075406;28;20460;-78
2023/10/24 10:41:34;;;;;;;20.10;18.80;;;;;;;;;;5074718;28;20448;-78
2023/10/24 10:44:05;;;;;;;19.60;18.60;;;;;;;;;;5075955;28;20460;-80
2023/10/24 10:46:33;;;;;;;20.30;19.17;;;;;;;;;;5077114;28;20438;-80
2023/10/24 10:49:02;;;;;;;19.50;18.43;;;;;;;;;;5075740;28;20473;-79
2023/10/24 10:51:30;;;;;;;19.37;18.33;;;;;;;;;;5075484;28;20456;-76
2023/10/24 10:53:59;;;;;;;19.70;18.50;;;;;;;;;;5074137;28;20454;-77
2023/10/24 10:56:30;;;;;;;19.23;18.23;;;;;;;;;;5073520;28;20438;-78
2023/10/24 10:59:15;;;;;;;19.77;18.73;;;;;;;;;;5073950;28;20437;-78
2023/10/24 11:01:51;;;;;;;19.27;18.27;;;;;;;;;;5073468;28;20427;-77
2023/10/24 11:04:18;;;;;;;19.47;18.37;;;;;;;;;;5075094;28;20425;-79
2023/10/24 11:06:51;;;;;;;20.10;19.00;;;;;;;;;;5077740;28;20469;-80
2023/10/24 11:09:20;;;;;;;20.00;18.70;;;;;;;;;;5078351;28;20443;-82
2023/10/24 11:11:47;;;;;;;21.27;19.13;;;;;;;;;;5061169;28;20471;-81
2023/10/24 11:14:15;;;;;;;19.17;18.17;;;;;;;;;;5057692;28;20817;-81
2023/10/24 11:16:44;;;;;;;18.60;17.60;;;;;;;;;;5057764;28;20506;-80
2023/10/24 11:19:18;;;;;;;19.10;18.00;;;;;;;;;;5057901;28;20466;-81
2023/10/24 11:21:45;;;;;;;18.77;17.77;;;;;;;;;;5057016;28;20470;-80
2023/10/24 11:24:17;;;;;;;19.13;18.13;;;;;;;;;;5057223;28;20451;-80
2023/10/24 11:26:44;;;;;;;19.37;18.23;;;;;;;;;;5057023;28;20470;-81
2023/10/24 11:29:13;;;;;;;19.63;18.53;;;;;;;;;;5056800;28;20489;-81
2023/10/24 11:31:40;;;;;;;19.07;18.07;;;;;;;;;;5056317;28;20487;-81
2023/10/24 11:34:08;;;;;;;20.40;19.10;;;;;;;;;;5056726;28;20862;-81
2023/10/24 11:36:35;;;;;;;19.23;18.23;;;;;;;;;;5075571;28;20982;-81
2023/10/24 11:39:04;;;;;;;20.33;19.23;;;;;;;;;;5075612;28;20449;-79
2023/10/24 11:41:31;;;;;;;20.00;18.90;;;;;;;;;;5075986;28;20427;-79
2023/10/24 11:43:58;;;;;;;20.30;19.30;;;;;;;;;;5074527;28;20503;-80
2023/10/24 11:46:25;;;;;;;19.70;18.60;;;;;;;;;;5075337;28;20489;-80
2023/10/24 11:48:52;;;;;;;20.33;19.23;;;;;;;;;;5075747;28;20441;-80
2023/10/24 11:51:21;;;;;;;19.27;18.27;;;;;;;;;;5075972;28;20446;-80
2023/10/24 11:53:48;;;;;;;19.53;18.53;;;;;;;;;;5075212;28;20460;-80
2023/10/24 11:56:15;;;;;;;20.23;19.10;;;;;;;;;;5075949;28;20465;-80
2023/10/24 11:58:43;;;;;;;19.83;18.83;;;;;;;;;;5075073;28;20456;-80
2023/10/24 12:01:11;;;;;;;20.17;19.10;;;;;;;;;;5075464;28;20511;-82
2023/10/24 12:03:45;;;;;;;19.90;18.80;;;;;;;;;;5075528;28;20449;-80
2023/10/24 12:06:12;;;;;;;19.93;18.93;;;;;;;;;;5074969;28;20473;-81
2023/10/24 12:08:44;;;;;;;19.90;18.90;;;;;;;;;;5073722;28;20444;-80
2023/10/24 12:11:11;;;;;;;20.03;18.73;;;;;;;;;;5071462;28;20998;-80
2023/10/24 12:13:38;;;;;;;19.73;18.73;;;;;;;;;;5073705;28;20975;-80
2023/10/24 12:16:06;;;;;;;20.70;19.60;;;;;;;;;;5074401;28;20457;-80
2023/10/24 12:18:33;;;;;;;20.80;19.50;;;;;;;;;;5074829;28;20560;-79
2023/10/24 12:21:00;;;;;;;20.10;19.10;;;;;;;;;;5074264;28;21259;-79
2023/10/24 12:23:27;;;;;;;20.40;19.10;;;;;;;;;;5074885;28;20453;-81
2023/10/24 12:25:55;;;;;;;20.27;19.10;;;;;;;;;;5073766;28;20590;-79
2023/10/24 12:28:22;;;;;;;19.30;18.30;;;;;;;;;;5056518;28;20474;-81
2023/10/24 12:30:49;;;;;;;19.60;18.57;;;;;;;;;;5054977;28;20457;-82
2023/10/24 12:33:16;;;;;;;20.67;19.47;;;;;;;;;;5053141;28;20454;-77
2023/10/24 12:35:43;;;;;;;19.50;18.50;;;;;;;;;;5050206;28;20450;-76
2023/10/24 12:38:10;;;;;;;20.50;19.20;;;;;;;;;;5051018;28;20490;-78
2023/10/24 12:40:38;;;;;;;19.93;18.63;;;;;;;;;;5050953;28;20443;-76
2023/10/24 12:43:06;;;;;;;20.10;19.00;;;;;;;;;;5050762;28;21214;-77
2023/10/24 12:45:33;;;;;;;19.67;18.57;;;;;;;;;;5049952;28;20486;-76
2023/10/24 12:48:01;;;;;;;19.23;18.23;;;;;;;;;;5050790;28;20470;-76
2023/10/24 12:50:28;;;;;;;19.20;18.20;;;;;;;;;;5050229;28;20953;-77
2023/10/24 12:52:55;;;;;;;19.50;18.40;;;;;;;;;;5050662;28;20454;-78
2023/10/24 12:55:24;;;;;;;19.13;18.13;;;;;;;;;;5049752;28;20476;-76
2023/10/24 12:57:51;;;;;;;18.93;17.93;;;;;;;;;;5050401;28;20509;-76
2023/10/24 13:00:19;;;;;;;20.63;19.20;;;;;;;;;;5050434;28;20458;-77
2023/10/24 13:02:46;;;;;;;19.27;18.27;;;;;;;;;;5050611;28;20459;-76
2023/10/24 13:05:13;;;;;;;19.77;18.47;;;;;;;;;;5048984;28;20846;-77
2023/10/24 13:07:40;;;;;;;20.10;19.00;;;;;;;;;;5050634;28;20479;-78
2023/10/24 13:10:08;;;;;;;20.30;19.20;;;;;;;;;;5050019;28;21243;-77
2023/10/24 13:12:35;;;;;;;19.30;18.30;;;;;;;;;;5051314;28;20447;-77
2023/10/24 13:15:03;;;;;;;20.00;18.70;;;;;;;;;;5066520;28;20455;-76
2023/10/24 13:17:31;;;;;;;19.63;18.53;;;;;;;;;;5071511;28;20481;-76
2023/10/24 13:19:58;;;;;;;19.77;18.67;;;;;;;;;;5071375;28;20789;-77
2023/10/24 13:22:26;;;;;;;19.47;18.47;;;;;;;;;;5059370;28;20436;-76
2023/10/24 13:24:53;;;;;;;19.50;18.40;;;;;;;;;;5067372;28;20427;-78
2023/10/24 13:27:20;;;;;;;19.70;18.50;;;;;;;;;;5067132;28;20486;-77
2023/10/24 13:29:48;;;;;;;19.50;18.40;;;;;;;;;;5054778;28;20444;-75
2023/10/24 13:32:15;;;;;;;19.90;18.80;;;;;;;;;;5053264;28;20455;-79
2023/10/24 13:34:43;;;;;;;19.90;18.90;;;;;;;;;;5052971;28;20430;-77
2023/10/24 13:37:10;;;;;;;20.73;19.63;;;;;;;;;;5063732;28;20516;-77
2023/10/24 13:39:37;;;;;;;21.33;19.97;;;;;;;;;;5078224;28;20483;-89
2023/10/24 13:42:05;;;;;;;20.43;19.23;;;;;;;;;;5077570;28;20450;-78
2023/10/24 13:44:32;;;;;;;20.30;19.20;;;;;;;;;;5070530;28;20459;-77
2023/10/24 13:47:00;;;;;;;20.93;19.53;;;;;;;;;;5075649;28;20551;-74
2023/10/24 13:49:27;;;;;;;20.00;18.90;;;;;;;;;;5079496;28;20458;-85
2023/10/24 13:51:55;;;;;;;21.00;19.60;;;;;;;;;;5062866;28;20477;-74
2023/10/24 13:54:22;;;;;;;20.73;19.40;;;;;;;;;;5057360;28;20455;-79
2023/10/24 13:56:49;;;;;;;20.37;19.17;;;;;;;;;;5054256;28;21266;-78
2023/10/24 13:59:16;;;;;;;20.30;18.83;;;;;;;;;;5060333;28;20447;-81
2023/10/24 14:01:43;;;;;;;20.53;19.43;;;;;;;;;;5059118;28;20450;-80
2023/10/24 14:04:10;;;;;;;20.90;19.70;;;;;;;;;;5055545;28;20447;-80
2023/10/24 14:06:38;;;;;;;20.50;19.30;;;;;;;;;;5055245;28;20876;-80
2023/10/24 14:09:06;;;;;;;19.73;18.73;;;;;;;;;;5057351;28;20798;-78
2023/10/24 14:11:34;;;;;;;20.50;19.43;;;;;;;;;;5061268;28;20455;-82
2023/10/24 14:14:01;;;;;;;21.43;20.13;;;;;;;;;;5060265;28;20425;-78
2023/10/24 14:16:28;;;;;;;20.57;19.40;;;;;;;;;;5063500;28;20805;-78
2023/10/24 14:18:55;;;;;;;20.00;18.93;;;;;;;;;;5075244;28;20496;-79